sensor_id;sensor_type;location;lat;lon;timestamp;P1;durP1;ratioP1;P2;durP2;ratioP2
42478;SDS011;28110;47.080;9.476;2023-02-01T00:01:23;9.07;;;4.35;;
42478;SDS011;28110;47.080;9.476;2023-02-01T00:03:49;7.10;;;3.60;;
42478;SDS011;28110;47.080;9.476;2023-02-01T00:06:14;8.50;;;4.27;;
42478;SDS011;28110;47.080;9.476;2023-02-01T00:08:40;8.02;;;3.38;;
42478;SDS011;28110;47.080;9.476;2023-02-01T00:11:07;8.10;;;3.57;;
42478;SDS011;28110;47.080;9.476;2023-02-01T00:13:34;8.82;;;4.18;;
42478;SDS011;28110;47.080;9.476;2023-02-01T00:16:05;7.43;;;4.25;;
42478;SDS011;28110;47.080;9.476;2023-02-01T00:18:32;9.13;;;4.30;;
42478;SDS011;28110;47.080;9.476;2023-02-01T00:20:58;8.45;;;4.55;;
42478;SDS011;28110;47.080;9.476;2023-02-01T00:23:23;7.90;;;4.22;;
42478;SDS011;28110;47.080;9.476;2023-02-01T00:25:49;9.45;;;4.20;;
42478;SDS011;28110;47.080;9.476;2023-02-01T00:28:14;9.40;;;4.33;;
42478;SDS011;28110;47.080;9.476;2023-02-01T00:30:40;6.63;;;3.90;;
42478;SDS011;28110;47.080;9.476;2023-02-01T00:33:05;8.60;;;4.35;;
42478;SDS011;28110;47.080;9.476;2023-02-01T00:35:33;6.60;;;3.53;;
42478;SDS011;28110;47.080;9.476;2023-02-01T00:37:59;7.38;;;4.03;;
42478;SDS011;28110;47.080;9.476;2023-02-01T00:40:25;7.10;;;4.15;;
42478;SDS011;28110;47.080;9.476;2023-02-01T00:42:51;8.20;;;3.90;;
42478;SDS011;28110;47.080;9.476;2023-02-01T00:45:16;8.27;;;4.18;;
42478;SDS011;28110;47.080;9.476;2023-02-01T00:47:42;7.53;;;3.70;;
42478;SDS011;28110;47.080;9.476;2023-02-01T00:50:08;10.70;;;4.27;;
42478;SDS011;28110;47.080;9.476;2023-02-01T00:52:34;13.25;;;4.60;;
42478;SDS011;28110;47.080;9.476;2023-02-01T00:55:00;7.60;;;4.17;;
42478;SDS011;28110;47.080;9.476;2023-02-01T00:57:26;7.95;;;4.38;;
42478;SDS011;28110;47.080;9.476;2023-02-01T00:59:51;6.57;;;3.80;;
42478;SDS011;28110;47.080;9.476;2023-02-01T01:02:17;6.07;;;3.50;;
42478;SDS011;28110;47.080;9.476;2023-02-01T01:04:42;7.97;;;3.90;;
42478;SDS011;28110;47.080;9.476;2023-02-01T01:07:08;5.72;;;3.20;;
42478;SDS011;28110;47.080;9.476;2023-02-01T01:09:34;8.30;;;3.33;;
42478;SDS011;28110;47.080;9.476;2023-02-01T01:12:00;6.15;;;2.92;;
42478;SDS011;28110;47.080;9.476;2023-02-01T01:14:27;5.88;;;3.05;;
42478;SDS011;28110;47.080;9.476;2023-02-01T01:16:53;5.47;;;2.60;;
42478;SDS011;28110;47.080;9.476;2023-02-01T01:19:19;5.50;;;2.45;;
42478;SDS011;28110;47.080;9.476;2023-02-01T01:21:45;6.43;;;3.00;;
42478;SDS011;28110;47.080;9.476;2023-02-01T01:24:10;8.60;;;3.00;;
42478;SDS011;28110;47.080;9.476;2023-02-01T01:26:36;6.40;;;3.77;;
42478;SDS011;28110;47.080;9.476;2023-02-01T01:29:02;6.67;;;2.93;;
42478;SDS011;28110;47.080;9.476;2023-02-01T01:31:29;6.00;;;3.13;;
42478;SDS011;28110;47.080;9.476;2023-02-01T01:33:56;5.15;;;3.17;;
42478;SDS011;28110;47.080;9.476;2023-02-01T01:36:23;6.10;;;3.20;;
42478;SDS011;28110;47.080;9.476;2023-02-01T01:38:49;5.40;;;3.38;;
42478;SDS011;28110;47.080;9.476;2023-02-01T01:41:19;4.97;;;2.70;;
42478;SDS011;28110;47.080;9.476;2023-02-01T01:43:53;6.72;;;2.30;;
42478;SDS011;28110;47.080;9.476;2023-02-01T01:46:31;5.57;;;2.13;;
42478;SDS011;28110;47.080;9.476;2023-02-01T01:49:10;4.45;;;2.45;;
42478;SDS011;28110;47.080;9.476;2023-02-01T01:51:41;3.30;;;2.00;;
42478;SDS011;28110;47.080;9.476;2023-02-01T01:54:26;3.83;;;1.98;;
42478;SDS011;28110;47.080;9.476;2023-02-01T01:56:57;4.32;;;1.90;;
42478;SDS011;28110;47.080;9.476;2023-02-01T01:59:27;5.68;;;2.33;;
42478;SDS011;28110;47.080;9.476;2023-02-01T02:01:53;4.40;;;2.10;;
42478;SDS011;28110;47.080;9.476;2023-02-01T02:04:20;4.97;;;2.23;;
42478;SDS011;28110;47.080;9.476;2023-02-01T02:07:03;4.35;;;1.55;;
42478;SDS011;28110;47.080;9.476;2023-02-01T02:09:32;5.93;;;2.05;;
42478;SDS011;28110;47.080;9.476;2023-02-01T02:11:58;6.27;;;1.60;;
42478;SDS011;28110;47.080;9.476;2023-02-01T02:14:24;2.42;;;1.60;;
42478;SDS011;28110;47.080;9.476;2023-02-01T02:36:51;3.47;;;1.60;;
42478;SDS011;28110;47.080;9.476;2023-02-01T02:40:15;3.13;;;1.40;;
42478;SDS011;28110;47.080;9.476;2023-02-01T02:42:58;4.25;;;1.50;;
42478;SDS011;28110;47.080;9.476;2023-02-01T02:46:22;2.53;;;1.20;;
42478;SDS011;28110;47.080;9.476;2023-02-01T02:49:12;3.97;;;1.87;;
42478;SDS011;28110;47.080;9.476;2023-02-01T02:51:53;2.72;;;1.38;;
42478;SDS011;28110;47.080;9.476;2023-02-01T02:54:43;2.40;;;1.42;;
42478;SDS011;28110;47.080;9.476;2023-02-01T02:57:20;4.13;;;1.33;;
42478;SDS011;28110;47.080;9.476;2023-02-01T03:00:16;4.60;;;1.55;;
42478;SDS011;28110;47.080;9.476;2023-02-01T03:03:03;3.47;;;1.70;;
42478;SDS011;28110;47.080;9.476;2023-02-01T03:05:48;4.70;;;2.05;;
42478;SDS011;28110;47.080;9.476;2023-02-01T03:08:19;3.35;;;1.52;;
42478;SDS011;28110;47.080;9.476;2023-02-01T03:10:57;3.33;;;1.75;;
42478;SDS011;28110;47.080;9.476;2023-02-01T03:16:22;4.47;;;1.80;;
42478;SDS011;28110;47.080;9.476;2023-02-01T03:19:05;4.05;;;2.25;;
42478;SDS011;28110;47.080;9.476;2023-02-01T03:21:37;5.13;;;2.70;;
42478;SDS011;28110;47.080;9.476;2023-02-01T03:24:53;5.60;;;2.30;;
42478;SDS011;28110;47.080;9.476;2023-02-01T03:27:07;3.35;;;1.83;;
42478;SDS011;28110;47.080;9.476;2023-02-01T03:29:46;4.77;;;1.97;;
42478;SDS011;28110;47.080;9.476;2023-02-01T03:32:16;5.65;;;3.08;;
42478;SDS011;28110;47.080;9.476;2023-02-01T03:34:42;4.35;;;2.47;;
42478;SDS011;28110;47.080;9.476;2023-02-01T03:37:12;4.90;;;2.30;;
42478;SDS011;28110;47.080;9.476;2023-02-01T03:39:53;5.38;;;2.63;;
42478;SDS011;28110;47.080;9.476;2023-02-01T03:42:30;4.43;;;2.07;;
42478;SDS011;28110;47.080;9.476;2023-02-01T03:45:16;5.85;;;2.20;;
42478;SDS011;28110;47.080;9.476;2023-02-01T03:47:48;5.40;;;2.47;;
42478;SDS011;28110;47.080;9.476;2023-02-01T03:50:21;5.22;;;2.38;;
42478;SDS011;28110;47.080;9.476;2023-02-01T03:52:57;7.38;;;2.40;;
42478;SDS011;28110;47.080;9.476;2023-02-01T03:55:27;5.23;;;2.20;;
42478;SDS011;28110;47.080;9.476;2023-02-01T04:00:29;6.40;;;2.78;;
42478;SDS011;28110;47.080;9.476;2023-02-01T04:02:54;4.00;;;2.30;;
42478;SDS011;28110;47.080;9.476;2023-02-01T04:05:20;5.53;;;2.90;;
42478;SDS011;28110;47.080;9.476;2023-02-01T04:07:46;5.35;;;2.80;;
42478;SDS011;28110;47.080;9.476;2023-02-01T04:10:12;6.07;;;2.77;;
42478;SDS011;28110;47.080;9.476;2023-02-01T04:12:38;5.80;;;2.87;;
42478;SDS011;28110;47.080;9.476;2023-02-01T04:15:03;6.38;;;2.70;;
42478;SDS011;28110;47.080;9.476;2023-02-01T04:17:30;5.32;;;3.20;;
42478;SDS011;28110;47.080;9.476;2023-02-01T04:19:55;7.57;;;3.07;;
42478;SDS011;28110;47.080;9.476;2023-02-01T04:22:21;6.45;;;2.90;;
42478;SDS011;28110;47.080;9.476;2023-02-01T04:24:47;7.90;;;2.63;;
42478;SDS011;28110;47.080;9.476;2023-02-01T04:27:13;5.22;;;2.83;;
42478;SDS011;28110;47.080;9.476;2023-02-01T04:29:38;4.60;;;2.40;;
42478;SDS011;28110;47.080;9.476;2023-02-01T04:32:04;4.97;;;2.45;;
42478;SDS011;28110;47.080;9.476;2023-02-01T04:34:29;4.40;;;2.23;;
42478;SDS011;28110;47.080;9.476;2023-02-01T04:36:55;5.55;;;1.98;;
42478;SDS011;28110;47.080;9.476;2023-02-01T04:39:21;5.07;;;2.13;;
42478;SDS011;28110;47.080;9.476;2023-02-01T04:41:46;6.07;;;2.53;;
42478;SDS011;28110;47.080;9.476;2023-02-01T04:44:15;5.33;;;1.97;;
42478;SDS011;28110;47.080;9.476;2023-02-01T04:46:42;3.25;;;1.75;;
42478;SDS011;28110;47.080;9.476;2023-02-01T04:49:08;3.15;;;1.40;;
42478;SDS011;28110;47.080;9.476;2023-02-01T04:51:35;4.00;;;2.10;;
42478;SDS011;28110;47.080;9.476;2023-02-01T04:54:00;3.37;;;1.50;;
42478;SDS011;28110;47.080;9.476;2023-02-01T04:56:25;2.50;;;1.33;;
42478;SDS011;28110;47.080;9.476;2023-02-01T04:58:51;3.88;;;2.08;;
42478;SDS011;28110;47.080;9.476;2023-02-01T05:01:17;4.00;;;2.10;;
42478;SDS011;28110;47.080;9.476;2023-02-01T05:03:42;5.10;;;2.27;;
42478;SDS011;28110;47.080;9.476;2023-02-01T05:06:08;2.58;;;1.42;;
42478;SDS011;28110;47.080;9.476;2023-02-01T05:08:33;2.37;;;1.23;;
42478;SDS011;28110;47.080;9.476;2023-02-01T05:10:59;2.58;;;1.30;;
42478;SDS011;28110;47.080;9.476;2023-02-01T05:13:27;2.33;;;0.97;;
42478;SDS011;28110;47.080;9.476;2023-02-01T05:16:12;3.13;;;1.33;;
42478;SDS011;28110;47.080;9.476;2023-02-01T05:18:37;3.53;;;1.35;;
42478;SDS011;28110;47.080;9.476;2023-02-01T05:21:03;4.73;;;2.00;;
42478;SDS011;28110;47.080;9.476;2023-02-01T05:23:29;3.93;;;1.93;;
42478;SDS011;28110;47.080;9.476;2023-02-01T05:25:58;5.50;;;2.38;;
42478;SDS011;28110;47.080;9.476;2023-02-01T05:28:27;3.25;;;1.88;;
42478;SDS011;28110;47.080;9.476;2023-02-01T05:30:53;4.70;;;2.13;;
42478;SDS011;28110;47.080;9.476;2023-02-01T05:33:19;5.78;;;2.30;;
42478;SDS011;28110;47.080;9.476;2023-02-01T05:35:45;6.25;;;2.38;;
42478;SDS011;28110;47.080;9.476;2023-02-01T05:38:10;5.17;;;2.00;;
42478;SDS011;28110;47.080;9.476;2023-02-01T05:40:36;3.67;;;2.17;;
42478;SDS011;28110;47.080;9.476;2023-02-01T05:43:01;4.87;;;2.50;;
42478;SDS011;28110;47.080;9.476;2023-02-01T05:45:27;5.83;;;2.80;;
42478;SDS011;28110;47.080;9.476;2023-02-01T05:47:52;5.72;;;2.22;;
42478;SDS011;28110;47.080;9.476;2023-02-01T05:50:18;5.13;;;2.43;;
42478;SDS011;28110;47.080;9.476;2023-02-01T05:52:43;4.20;;;2.43;;
42478;SDS011;28110;47.080;9.476;2023-02-01T05:55:09;6.75;;;2.72;;
42478;SDS011;28110;47.080;9.476;2023-02-01T05:57:34;4.53;;;2.43;;
42478;SDS011;28110;47.080;9.476;2023-02-01T06:00:00;4.03;;;2.53;;
42478;SDS011;28110;47.080;9.476;2023-02-01T06:02:26;8.27;;;2.80;;
42478;SDS011;28110;47.080;9.476;2023-02-01T06:04:51;4.67;;;2.43;;
42478;SDS011;28110;47.080;9.476;2023-02-01T06:07:17;4.70;;;2.65;;
42478;SDS011;28110;47.080;9.476;2023-02-01T06:09:43;5.68;;;3.10;;
42478;SDS011;28110;47.080;9.476;2023-02-01T06:12:08;5.93;;;2.83;;
42478;SDS011;28110;47.080;9.476;2023-02-01T06:14:34;6.65;;;2.83;;
42478;SDS011;28110;47.080;9.476;2023-02-01T06:16:59;7.33;;;2.60;;
42478;SDS011;28110;47.080;9.476;2023-02-01T06:19:25;10.00;;;3.03;;
42478;SDS011;28110;47.080;9.476;2023-02-01T06:21:51;8.73;;;3.90;;
42478;SDS011;28110;47.080;9.476;2023-02-01T06:24:17;14.00;;;4.20;;
42478;SDS011;28110;47.080;9.476;2023-02-01T06:26:42;13.20;;;3.30;;
42478;SDS011;28110;47.080;9.476;2023-02-01T06:29:09;10.60;;;5.25;;
42478;SDS011;28110;47.080;9.476;2023-02-01T06:31:35;9.88;;;4.45;;
42478;SDS011;28110;47.080;9.476;2023-02-01T06:34:01;10.48;;;5.38;;
42478;SDS011;28110;47.080;9.476;2023-02-01T06:36:27;11.10;;;5.37;;
42478;SDS011;28110;47.080;9.476;2023-02-01T06:38:53;13.43;;;5.30;;
42478;SDS011;28110;47.080;9.476;2023-02-01T06:41:21;9.15;;;5.18;;
42478;SDS011;28110;47.080;9.476;2023-02-01T06:43:47;10.55;;;5.22;;
42478;SDS011;28110;47.080;9.476;2023-02-01T06:46:12;8.67;;;4.77;;
42478;SDS011;28110;47.080;9.476;2023-02-01T06:48:38;8.90;;;4.22;;
42478;SDS011;28110;47.080;9.476;2023-02-01T06:51:04;7.53;;;4.37;;
42478;SDS011;28110;47.080;9.476;2023-02-01T06:53:30;8.20;;;4.20;;
42478;SDS011;28110;47.080;9.476;2023-02-01T06:56:00;9.83;;;4.07;;
42478;SDS011;28110;47.080;9.476;2023-02-01T06:58:30;6.82;;;3.65;;
42478;SDS011;28110;47.080;9.476;2023-02-01T07:00:57;8.00;;;3.95;;
42478;SDS011;28110;47.080;9.476;2023-02-01T07:03:23;5.80;;;3.53;;
42478;SDS011;28110;47.080;9.476;2023-02-01T07:05:49;5.10;;;2.67;;
42478;SDS011;28110;47.080;9.476;2023-02-01T07:08:14;6.93;;;3.33;;
42478;SDS011;28110;47.080;9.476;2023-02-01T07:10:40;7.15;;;3.33;;
42478;SDS011;28110;47.080;9.476;2023-02-01T07:13:05;8.20;;;4.20;;
42478;SDS011;28110;47.080;9.476;2023-02-01T07:15:31;9.23;;;3.43;;
42478;SDS011;28110;47.080;9.476;2023-02-01T07:17:57;8.45;;;4.20;;
42478;SDS011;28110;47.080;9.476;2023-02-01T07:20:22;8.77;;;3.30;;
42478;SDS011;28110;47.080;9.476;2023-02-01T07:22:48;5.53;;;3.08;;
42478;SDS011;28110;47.080;9.476;2023-02-01T07:25:19;14.15;;;5.75;;
42478;SDS011;28110;47.080;9.476;2023-02-01T07:27:44;9.30;;;3.90;;
42478;SDS011;28110;47.080;9.476;2023-02-01T07:30:11;30.60;;;11.90;;
42478;SDS011;28110;47.080;9.476;2023-02-01T07:32:37;20.70;;;8.53;;
42478;SDS011;28110;47.080;9.476;2023-02-01T07:35:02;7.75;;;3.47;;
42478;SDS011;28110;47.080;9.476;2023-02-01T07:37:28;6.43;;;2.33;;
42478;SDS011;28110;47.080;9.476;2023-02-01T07:39:54;6.10;;;2.38;;
42478;SDS011;28110;47.080;9.476;2023-02-01T07:42:20;6.23;;;3.10;;
42478;SDS011;28110;47.080;9.476;2023-02-01T07:44:45;6.35;;;2.78;;
42478;SDS011;28110;47.080;9.476;2023-02-01T07:47:11;11.13;;;5.17;;
42478;SDS011;28110;47.080;9.476;2023-02-01T07:49:36;5.87;;;2.30;;
42478;SDS011;28110;47.080;9.476;2023-02-01T07:52:02;12.63;;;4.93;;
42478;SDS011;28110;47.080;9.476;2023-02-01T07:54:27;8.17;;;4.33;;
42478;SDS011;28110;47.080;9.476;2023-02-01T07:56:53;7.10;;;3.60;;
42478;SDS011;28110;47.080;9.476;2023-02-01T07:59:19;4.17;;;1.90;;
42478;SDS011;28110;47.080;9.476;2023-02-01T08:01:44;4.95;;;2.33;;
42478;SDS011;28110;47.080;9.476;2023-02-01T08:04:12;7.40;;;3.07;;
42478;SDS011;28110;47.080;9.476;2023-02-01T08:06:38;4.80;;;2.22;;
42478;SDS011;28110;47.080;9.476;2023-02-01T08:09:05;4.40;;;2.30;;
42478;SDS011;28110;47.080;9.476;2023-02-01T08:11:32;7.78;;;3.63;;
42478;SDS011;28110;47.080;9.476;2023-02-01T08:13:58;5.70;;;2.63;;
42478;SDS011;28110;47.080;9.476;2023-02-01T08:16:24;4.95;;;2.30;;
42478;SDS011;28110;47.080;9.476;2023-02-01T08:18:50;9.05;;;3.55;;
42478;SDS011;28110;47.080;9.476;2023-02-01T08:21:21;5.43;;;3.03;;
42478;SDS011;28110;47.080;9.476;2023-02-01T08:23:48;6.78;;;2.60;;
42478;SDS011;28110;47.080;9.476;2023-02-01T08:26:15;6.95;;;2.65;;
42478;SDS011;28110;47.080;9.476;2023-02-01T08:28:44;9.90;;;3.93;;
42478;SDS011;28110;47.080;9.476;2023-02-01T08:31:12;5.10;;;3.10;;
42478;SDS011;28110;47.080;9.476;2023-02-01T08:33:40;4.38;;;1.88;;
42478;SDS011;28110;47.080;9.476;2023-02-01T08:36:07;2.08;;;1.20;;
42478;SDS011;28110;47.080;9.476;2023-02-01T08:38:34;2.92;;;0.90;;
42478;SDS011;28110;47.080;9.476;2023-02-01T08:41:14;3.77;;;1.50;;
42478;SDS011;28110;47.080;9.476;2023-02-01T08:43:41;3.35;;;1.23;;
42478;SDS011;28110;47.080;9.476;2023-02-01T08:46:08;5.25;;;1.38;;
42478;SDS011;28110;47.080;9.476;2023-02-01T08:48:34;5.93;;;1.73;;
42478;SDS011;28110;47.080;9.476;2023-02-01T08:51:01;1.75;;;1.20;;
42478;SDS011;28110;47.080;9.476;2023-02-01T08:53:28;10.35;;;2.47;;
42478;SDS011;28110;47.080;9.476;2023-02-01T08:55:53;18.15;;;3.90;;
42478;SDS011;28110;47.080;9.476;2023-02-01T08:58:19;5.13;;;2.03;;
42478;SDS011;28110;47.080;9.476;2023-02-01T09:00:46;9.05;;;2.20;;
42478;SDS011;28110;47.080;9.476;2023-02-01T09:03:13;8.25;;;1.75;;
42478;SDS011;28110;47.080;9.476;2023-02-01T09:05:38;8.37;;;3.37;;
42478;SDS011;28110;47.080;9.476;2023-02-01T09:08:05;6.88;;;2.30;;
42478;SDS011;28110;47.080;9.476;2023-02-01T09:10:31;5.03;;;2.70;;
42478;SDS011;28110;47.080;9.476;2023-02-01T09:12:57;6.15;;;3.20;;
42478;SDS011;28110;47.080;9.476;2023-02-01T09:15:23;6.47;;;1.90;;
42478;SDS011;28110;47.080;9.476;2023-02-01T09:17:48;2.60;;;1.27;;
42478;SDS011;28110;47.080;9.476;2023-02-01T09:20:14;5.97;;;1.50;;
42478;SDS011;28110;47.080;9.476;2023-02-01T09:22:40;4.68;;;1.95;;
42478;SDS011;28110;47.080;9.476;2023-02-01T09:25:06;7.10;;;3.28;;
42478;SDS011;28110;47.080;9.476;2023-02-01T09:27:32;3.90;;;1.87;;
42478;SDS011;28110;47.080;9.476;2023-02-01T09:29:58;4.38;;;1.85;;
42478;SDS011;28110;47.080;9.476;2023-02-01T09:32:24;6.60;;;3.05;;
42478;SDS011;28110;47.080;9.476;2023-02-01T09:34:50;4.87;;;2.47;;
42478;SDS011;28110;47.080;9.476;2023-02-01T09:37:17;7.10;;;1.83;;
42478;SDS011;28110;47.080;9.476;2023-02-01T09:39:43;4.47;;;1.73;;
42478;SDS011;28110;47.080;9.476;2023-02-01T09:42:16;8.57;;;4.20;;
42478;SDS011;28110;47.080;9.476;2023-02-01T09:45:02;6.70;;;4.03;;
42478;SDS011;28110;47.080;9.476;2023-02-01T09:47:50;3.58;;;1.77;;
42478;SDS011;28110;47.080;9.476;2023-02-01T09:50:20;9.15;;;1.58;;
42478;SDS011;28110;47.080;9.476;2023-02-01T09:53:15;3.90;;;1.55;;
42478;SDS011;28110;47.080;9.476;2023-02-01T09:55:49;4.63;;;1.30;;
42478;SDS011;28110;47.080;9.476;2023-02-01T09:58:20;4.45;;;1.40;;
42478;SDS011;28110;47.080;9.476;2023-02-01T10:00:58;3.70;;;1.38;;
42478;SDS011;28110;47.080;9.476;2023-02-01T10:03:26;2.30;;;1.23;;
42478;SDS011;28110;47.080;9.476;2023-02-01T10:06:14;4.03;;;1.02;;
42478;SDS011;28110;47.080;9.476;2023-02-01T10:13:58;2.17;;;1.20;;
42478;SDS011;28110;47.080;9.476;2023-02-01T10:22:40;3.77;;;1.70;;
42478;SDS011;28110;47.080;9.476;2023-02-01T10:27:48;5.10;;;2.55;;
42478;SDS011;28110;47.080;9.476;2023-02-01T10:30:19;4.68;;;1.85;;
42478;SDS011;28110;47.080;9.476;2023-02-01T10:32:47;2.85;;;1.40;;
42478;SDS011;28110;47.080;9.476;2023-02-01T10:35:34;4.30;;;1.80;;
42478;SDS011;28110;47.080;9.476;2023-02-01T10:38:03;6.18;;;2.45;;
42478;SDS011;28110;47.080;9.476;2023-02-01T10:40:39;5.85;;;3.13;;
42478;SDS011;28110;47.080;9.476;2023-02-01T10:43:05;7.88;;;3.15;;
42478;SDS011;28110;47.080;9.476;2023-02-01T10:45:34;5.60;;;2.97;;
42478;SDS011;28110;47.080;9.476;2023-02-01T10:48:00;7.22;;;3.80;;
42478;SDS011;28110;47.080;9.476;2023-02-01T10:50:31;4.97;;;2.45;;
42478;SDS011;28110;47.080;9.476;2023-02-01T10:53:12;9.17;;;2.63;;
42478;SDS011;28110;47.080;9.476;2023-02-01T10:58:20;6.17;;;3.40;;
42478;SDS011;28110;47.080;9.476;2023-02-01T11:00:57;5.32;;;2.60;;
42478;SDS011;28110;47.080;9.476;2023-02-01T11:03:30;6.85;;;1.92;;
42478;SDS011;28110;47.080;9.476;2023-02-01T11:05:57;7.03;;;2.30;;
42478;SDS011;28110;47.080;9.476;2023-02-01T11:08:23;6.40;;;2.60;;
42478;SDS011;28110;47.080;9.476;2023-02-01T11:10:49;7.30;;;2.45;;
42478;SDS011;28110;47.080;9.476;2023-02-01T11:13:30;5.47;;;2.30;;
42478;SDS011;28110;47.080;9.476;2023-02-01T11:16:01;3.33;;;1.70;;
42478;SDS011;28110;47.080;9.476;2023-02-01T11:18:30;3.13;;;1.10;;
42478;SDS011;28110;47.080;9.476;2023-02-01T11:20:59;4.80;;;1.30;;
42478;SDS011;28110;47.080;9.476;2023-02-01T11:23:26;2.08;;;1.05;;
42478;SDS011;28110;47.080;9.476;2023-02-01T11:25:57;2.90;;;1.40;;
42478;SDS011;28110;47.080;9.476;2023-02-01T11:28:29;3.27;;;1.70;;
42478;SDS011;28110;47.080;9.476;2023-02-01T11:31:08;3.35;;;1.13;;
42478;SDS011;28110;47.080;9.476;2023-02-01T11:33:36;5.38;;;1.27;;
42478;SDS011;28110;47.080;9.476;2023-02-01T11:36:07;6.07;;;2.03;;
42478;SDS011;28110;47.080;9.476;2023-02-01T11:38:37;3.53;;;1.48;;
42478;SDS011;28110;47.080;9.476;2023-02-01T11:41:13;3.40;;;1.40;;
42478;SDS011;28110;47.080;9.476;2023-02-01T11:43:55;5.97;;;1.75;;
42478;SDS011;28110;47.080;9.476;2023-02-01T11:46:24;4.70;;;1.80;;
42478;SDS011;28110;47.080;9.476;2023-02-01T11:48:55;5.40;;;1.90;;
42478;SDS011;28110;47.080;9.476;2023-02-01T11:54:05;3.47;;;1.55;;
42478;SDS011;28110;47.080;9.476;2023-02-01T11:59:32;3.92;;;1.70;;
42478;SDS011;28110;47.080;9.476;2023-02-01T12:02:35;4.13;;;1.80;;
42478;SDS011;28110;47.080;9.476;2023-02-01T12:05:27;6.50;;;1.97;;
42478;SDS011;28110;47.080;9.476;2023-02-01T12:08:18;6.60;;;1.60;;
42478;SDS011;28110;47.080;9.476;2023-02-01T12:11:12;3.35;;;1.50;;
42478;SDS011;28110;47.080;9.476;2023-02-01T12:13:57;4.50;;;1.92;;
42478;SDS011;28110;47.080;9.476;2023-02-01T12:32:22;8.75;;;2.58;;
42478;SDS011;28110;47.080;9.476;2023-02-01T12:43:38;5.65;;;2.55;;
42478;SDS011;28110;47.080;9.476;2023-02-01T12:46:21;6.97;;;2.70;;
42478;SDS011;28110;47.080;9.476;2023-02-01T12:51:21;9.17;;;3.50;;
42478;SDS011;28110;47.080;9.476;2023-02-01T12:53:52;7.30;;;3.20;;
42478;SDS011;28110;47.080;9.476;2023-02-01T12:56:24;8.65;;;3.60;;
42478;SDS011;28110;47.080;9.476;2023-02-01T12:59:03;9.32;;;3.13;;
42478;SDS011;28110;47.080;9.476;2023-02-01T13:01:41;4.45;;;2.40;;
42478;SDS011;28110;47.080;9.476;2023-02-01T13:12:15;5.85;;;2.88;;
42478;SDS011;28110;47.080;9.476;2023-02-01T13:14:53;6.72;;;2.60;;
42478;SDS011;28110;47.080;9.476;2023-02-01T13:17:30;5.47;;;2.63;;
42478;SDS011;28110;47.080;9.476;2023-02-01T13:22:50;6.18;;;2.83;;
42478;SDS011;28110;47.080;9.476;2023-02-01T13:25:26;5.20;;;2.60;;
42478;SDS011;28110;47.080;9.476;2023-02-01T13:28:07;4.13;;;2.08;;
42478;SDS011;28110;47.080;9.476;2023-02-01T13:33:26;9.60;;;2.28;;
42478;SDS011;28110;47.080;9.476;2023-02-01T13:39:18;4.05;;;1.88;;
42478;SDS011;28110;47.080;9.476;2023-02-01T13:42:24;6.40;;;2.05;;
42478;SDS011;28110;47.080;9.476;2023-02-01T13:45:05;3.90;;;2.00;;
42478;SDS011;28110;47.080;9.476;2023-02-01T13:47:47;3.92;;;2.30;;
42478;SDS011;28110;47.080;9.476;2023-02-01T13:50:23;6.25;;;2.30;;
42478;SDS011;28110;47.080;9.476;2023-02-01T13:52:57;4.72;;;2.20;;
42478;SDS011;28110;47.080;9.476;2023-02-01T13:55:43;5.30;;;2.40;;
42478;SDS011;28110;47.080;9.476;2023-02-01T14:01:31;8.05;;;2.10;;
42478;SDS011;28110;47.080;9.476;2023-02-01T14:03:44;3.95;;;2.22;;
42478;SDS011;28110;47.080;9.476;2023-02-01T14:06:15;4.63;;;2.25;;
42478;SDS011;28110;47.080;9.476;2023-02-01T14:11:42;7.72;;;2.38;;
42478;SDS011;28110;47.080;9.476;2023-02-01T14:16:40;5.28;;;2.72;;
42478;SDS011;28110;47.080;9.476;2023-02-01T14:19:08;6.20;;;2.55;;
42478;SDS011;28110;47.080;9.476;2023-02-01T14:24:25;5.50;;;2.80;;
42478;SDS011;28110;47.080;9.476;2023-02-01T14:26:53;6.00;;;2.78;;
42478;SDS011;28110;47.080;9.476;2023-02-01T14:29:38;4.88;;;2.40;;
42478;SDS011;28110;47.080;9.476;2023-02-01T14:32:11;6.03;;;2.38;;
42478;SDS011;28110;47.080;9.476;2023-02-01T14:37:22;7.43;;;2.13;;
42478;SDS011;28110;47.080;9.476;2023-02-01T14:40:01;6.72;;;2.30;;
42478;SDS011;28110;47.080;9.476;2023-02-01T14:47:47;7.05;;;2.25;;
42478;SDS011;28110;47.080;9.476;2023-02-01T14:52:44;4.45;;;2.17;;
42478;SDS011;28110;47.080;9.476;2023-02-01T14:58:23;4.47;;;2.30;;
42478;SDS011;28110;47.080;9.476;2023-02-01T15:01:01;10.18;;;2.10;;
42478;SDS011;28110;47.080;9.476;2023-02-01T15:03:52;3.63;;;2.08;;
42478;SDS011;28110;47.080;9.476;2023-02-01T15:06:27;5.15;;;2.33;;
42478;SDS011;28110;47.080;9.476;2023-02-01T15:11:33;9.57;;;2.70;;
42478;SDS011;28110;47.080;9.476;2023-02-01T15:14:22;9.00;;;3.03;;
42478;SDS011;28110;47.080;9.476;2023-02-01T15:16:49;9.77;;;3.13;;
42478;SDS011;28110;47.080;9.476;2023-02-01T15:19:22;8.32;;;3.60;;
42478;SDS011;28110;47.080;9.476;2023-02-01T15:21:52;10.88;;;4.35;;
42478;SDS011;28110;47.080;9.476;2023-02-01T15:24:21;11.93;;;3.65;;
42478;SDS011;28110;47.080;9.476;2023-02-01T15:26:51;5.72;;;3.00;;
42478;SDS011;28110;47.080;9.476;2023-02-01T15:29:19;11.25;;;2.97;;
42478;SDS011;28110;47.080;9.476;2023-02-01T15:31:47;6.15;;;2.90;;
42478;SDS011;28110;47.080;9.476;2023-02-01T15:34:15;12.25;;;3.15;;
42478;SDS011;28110;47.080;9.476;2023-02-01T15:36:41;5.90;;;2.03;;
42478;SDS011;28110;47.080;9.476;2023-02-01T15:39:12;3.58;;;1.42;;
42478;SDS011;28110;47.080;9.476;2023-02-01T15:42:12;3.20;;;1.40;;
42478;SDS011;28110;47.080;9.476;2023-02-01T15:44:45;11.40;;;2.50;;
42478;SDS011;28110;47.080;9.476;2023-02-01T15:47:25;6.10;;;2.60;;
42478;SDS011;28110;47.080;9.476;2023-02-01T15:49:53;5.60;;;3.25;;
42478;SDS011;28110;47.080;9.476;2023-02-01T15:52:21;9.20;;;2.97;;
42478;SDS011;28110;47.080;9.476;2023-02-01T15:55:08;11.30;;;2.90;;
42478;SDS011;28110;47.080;9.476;2023-02-01T15:57:57;6.97;;;2.33;;
42478;SDS011;28110;47.080;9.476;2023-02-01T16:00:24;7.90;;;2.43;;
42478;SDS011;28110;47.080;9.476;2023-02-01T16:02:56;7.90;;;4.53;;
42478;SDS011;28110;47.080;9.476;2023-02-01T16:05:36;9.10;;;3.58;;
42478;SDS011;28110;47.080;9.476;2023-02-01T16:08:10;10.25;;;3.70;;
42478;SDS011;28110;47.080;9.476;2023-02-01T16:10:42;7.30;;;2.70;;
42478;SDS011;28110;47.080;9.476;2023-02-01T16:13:10;4.63;;;2.50;;
42478;SDS011;28110;47.080;9.476;2023-02-01T16:15:36;6.28;;;2.38;;
42478;SDS011;28110;47.080;9.476;2023-02-01T16:18:02;9.88;;;2.50;;
42478;SDS011;28110;47.080;9.476;2023-02-01T16:20:28;16.10;;;2.55;;
42478;SDS011;28110;47.080;9.476;2023-02-01T16:22:54;8.18;;;2.00;;
42478;SDS011;28110;47.080;9.476;2023-02-01T16:25:20;7.72;;;2.90;;
42478;SDS011;28110;47.080;9.476;2023-02-01T16:27:46;4.30;;;2.70;;
42478;SDS011;28110;47.080;9.476;2023-02-01T16:30:11;6.05;;;2.22;;
42478;SDS011;28110;47.080;9.476;2023-02-01T16:32:37;8.82;;;1.98;;
42478;SDS011;28110;47.080;9.476;2023-02-01T16:35:18;2.83;;;1.40;;
42478;SDS011;28110;47.080;9.476;2023-02-01T16:37:54;5.78;;;2.42;;
42478;SDS011;28110;47.080;9.476;2023-02-01T16:40:20;3.47;;;2.17;;
42478;SDS011;28110;47.080;9.476;2023-02-01T16:42:47;5.85;;;2.05;;
42478;SDS011;28110;47.080;9.476;2023-02-01T16:45:15;5.95;;;2.30;;
42478;SDS011;28110;47.080;9.476;2023-02-01T16:47:42;7.77;;;1.90;;
42478;SDS011;28110;47.080;9.476;2023-02-01T16:50:17;4.68;;;2.55;;
42478;SDS011;28110;47.080;9.476;2023-02-01T16:52:47;7.70;;;3.17;;
42478;SDS011;28110;47.080;9.476;2023-02-01T16:55:13;10.13;;;3.47;;
42478;SDS011;28110;47.080;9.476;2023-02-01T16:57:40;8.55;;;3.30;;
42478;SDS011;28110;47.080;9.476;2023-02-01T17:00:07;4.77;;;2.80;;
42478;SDS011;28110;47.080;9.476;2023-02-01T17:02:34;5.30;;;2.30;;
42478;SDS011;28110;47.080;9.476;2023-02-01T17:04:59;3.03;;;1.58;;